KNJK

Details ICAO KNJK (NJK)
Name KNJK EL CENTRO NAF
Region United States
Timezone America/Los_Angeles (UTC-7.0)
Plans Departing 17
Arriving 8
Stats Elevation -42 ft / -13 m (AMSL)
Location 32.826152° -115.668009°
Runways 2
Magnetic Variation 11.165° E
Sunrise 2018-05-23 12:40:18 UTC / 2018-05-23 05:40:18 Local
Sunset 2018-05-24 02:41:28 UTC / 2018-05-23 19:41:28 Local
Advertisement - Login to hide

Runways

ID Width Length Bearing (true) Bearing (mag) Surface Threshold Offset Overrun Length
12 200 ft / 61 m 6,944 ft / 2,116 m 135.15° 123.99° Asphalt 43 ft / 13 m 0 ft / 0 m
26 200 ft / 61 m 9,542 ft / 2,908 m 269.96° 258.80° Concrete 59 ft / 18 m 0 ft / 0 m
30 200 ft / 61 m 6,944 ft / 2,116 m 315.16° 304.00° Asphalt 52 ft / 16 m 0 ft / 0 m
8 200 ft / 61 m 9,542 ft / 2,908 m 89.94° 78.78° Concrete 46 ft / 14 m 0 ft / 0 m

Map

Weather


0- 5 10 15 20 25 30 35+ Temperature / ° C

Clouds and Precipitation
Forecast for 2018-05-24 00:00 UTC. Updated 5 hours ago

Ground ~20,000 ft ~40,000 ft Winds

METAR

KNJK 240356Z 16010KT 10SM CLR 28/07 A2982 RMK AO2 SLP112 T02780067 $

TAF

Not found

Frequencies

Ground 121.90 MHz El Centro ground
Approach 119.10 MHz El Centro approach
Tower 119.00 MHz El Centro Tower
Warning: Do not use this data for real-world aviation or navigation. No guarantee of current accuracy is given.